Terminal Aerodrome Forecast
Issued by NWS Charleston, WV

Current Version | Previous Version | Text Only | Print | Product List | Glossary On
Versions: 1 2 3 4 5 6 7 8 9 10 11 12 13 14 15 16 17 18 19 20 21 22 23 24 25 26 27 28 29
000
FTUS41 KRLX 251500 AAA
TAFBKW
TAF AMD
KBKW 251507Z 2515/2612 21005KT P6SM SCT250
     FM251600 27010KT P6SM SCT250
     FM252000 27010KT P6SM BKN040
     FM260200 28011G21KT P6SM BKN025
     FM260400 28008G13KT P6SM BKN025
     FM260600 29004KT P6SM BKN025
     FM260800 30008KT P6SM BKN015
     FM261000 31009G16KT P6SM BKN250=

USA.gov is the U.S. government's official web portal to all federal, state and local government web resources and services.